Time;durP1;ratioP1;P1;durP2;ratioP2;P2;SDS_P1;SDS_P2;PMS_P1;PMS_P2;Temp;Humidity;BMP_temperature;BMP_pressure;BME280_temperature;BME280_humidity;BME280_pressure;Samples;Min_cycle;Max_cycle;Signal;HPM_P1;HPM_P2
2021/07/23 00:00:00;;;;;;;9.75;4.65;;;;;;;17.38;65.34;101245.02;1716695;83;25766;-60
2021/07/23 00:02:29;;;;;;;12.95;5.20;;;;;;;17.31;65.09;101248.39;1722935;83;25742;-60
2021/07/23 00:04:56;;;;;;;16.05;5.33;;;;;;;17.27;65.23;101252.97;1701271;83;25764;-59
2021/07/23 00:07:23;;;;;;;10.30;5.55;;;;;;;17.22;65.88;101248.04;1700410;84;25912;-59
2021/07/23 00:09:51;;;;;;;18.27;6.90;;;;;;;17.16;65.46;101251.45;1700313;84;27483;-59
2021/07/23 00:12:18;;;;;;;9.73;5.17;;;;;;;17.06;65.82;101250.25;1700099;84;25890;-59
2021/07/23 00:14:45;;;;;;;10.43;4.80;;;;;;;16.97;66.47;101252.09;1700070;82;25827;-59
2021/07/23 00:17:12;;;;;;;16.07;5.05;;;;;;;16.96;66.88;101250.38;1700511;84;25820;-60
2021/07/23 00:19:39;;;;;;;16.67;4.90;;;;;;;16.92;66.83;101255.80;1700482;83;25749;-60
2021/07/23 00:22:05;;;;;;;8.43;4.30;;;;;;;16.88;66.78;101253.05;1699843;84;28180;-60
2021/07/23 00:24:33;;;;;;;14.85;4.85;;;;;;;16.82;67.24;101255.92;1700347;84;26460;-59
2021/07/23 00:27:00;;;;;;;12.20;4.08;;;;;;;16.76;67.40;101253.87;1700222;84;25812;-59
2021/07/23 00:29:27;;;;;;;21.17;4.65;;;;;;;16.69;67.84;101256.39;1700206;84;26396;-59
2021/07/23 00:31:54;;;;;;;11.40;3.77;;;;;;;16.65;68.06;101248.73;1705744;82;25748;-59
2021/07/23 00:34:21;;;;;;;9.63;3.50;;;;;;;16.62;68.30;101254.00;1723085;83;28163;-60
2021/07/23 00:36:48;;;;;;;10.48;3.22;;;;;;;16.56;68.61;101255.50;1722774;83;25759;-59
2021/07/23 00:39:15;;;;;;;16.48;3.60;;;;;;;16.51;68.51;101252.93;1722825;83;25823;-60
2021/07/23 00:41:42;;;;;;;12.53;3.17;;;;;;;16.45;68.89;101247.64;1723070;83;26945;-59
2021/07/23 00:44:09;;;;;;;5.78;3.12;;;;;;;16.48;68.60;101250.56;1722981;82;25803;-60
2021/07/23 00:46:39;;;;;;;9.90;4.03;;;;;;;16.46;68.85;101256.14;1723105;83;27476;-60
2021/07/23 00:49:07;;;;;;;8.15;4.00;;;;;;;16.47;68.85;101252.41;1721051;83;26495;-59
2021/07/23 00:51:35;;;;;;;9.08;3.22;;;;;;;16.43;68.97;101255.95;1713099;83;26022;-59
2021/07/23 00:54:05;;;;;;;17.85;4.25;;;;;;;16.38;69.20;101259.69;1712954;83;25724;-59
2021/07/23 00:56:34;;;;;;;11.50;4.50;;;;;;;16.37;69.32;101255.27;1713024;82;25839;-59
2021/07/23 00:59:01;;;;;;;13.22;4.42;;;;;;;16.41;69.21;101262.58;1701008;83;28074;-60
2021/07/23 01:01:30;;;;;;;16.50;6.33;;;;;;;16.38;69.33;101257.45;1684160;85;25732;-59
2021/07/23 01:03:58;;;;;;;15.85;6.35;;;;;;;16.36;69.55;101259.52;1699893;82;25808;-59
2021/07/23 01:06:27;;;;;;;17.42;7.58;;;;;;;16.36;69.78;101257.63;1712931;83;25801;-59
2021/07/23 01:08:54;;;;;;;12.88;5.67;;;;;;;16.39;69.79;101258.67;1713442;83;25719;-60
2021/07/23 01:11:24;;;;;;;15.48;5.87;;;;;;;16.38;69.45;101258.33;1713014;83;27531;-59
2021/07/23 01:14:03;;;;;;;11.97;5.75;;;;;;;16.47;69.37;101258.36;1711569;82;25751;-59
2021/07/23 01:16:32;;;;;;;10.50;5.40;;;;;;;16.57;69.14;101259.09;1713238;83;25802;-59
2021/07/23 01:19:00;;;;;;;11.90;5.97;;;;;;;16.66;68.88;101255.88;1711296;83;25835;-59
2021/07/23 01:21:29;;;;;;;15.13;4.60;;;;;;;16.72;68.90;101257.92;1701111;82;25774;-59
2021/07/23 01:23:59;;;;;;;12.85;5.33;;;;;;;16.79;68.70;101256.27;1701875;84;27427;-59
2021/07/23 01:26:42;;;;;;;18.95;5.42;;;;;;;16.86;68.55;101255.95;1700876;84;25739;-59
2021/07/23 01:29:10;;;;;;;12.43;4.83;;;;;;;16.91;68.38;101256.81;1701577;82;25808;-59
2021/07/23 01:31:38;;;;;;;15.10;4.67;;;;;;;16.90;68.14;101256.46;1701401;82;25770;-59
2021/07/23 01:34:05;;;;;;;9.00;3.80;;;;;;;16.92;68.34;101254.44;1701703;82;25765;-59
2021/07/23 01:36:33;;;;;;;8.18;3.58;;;;;;;16.93;68.17;101253.91;1681076;84;27480;-59
2021/07/23 01:39:01;;;;;;;9.63;4.55;;;;;;;16.89;68.05;101251.55;1701114;82;25873;-60
2021/07/23 01:41:30;;;;;;;10.65;4.03;;;;;;;16.89;67.91;101251.55;1701865;84;26519;-59
2021/07/23 01:43:57;;;;;;;10.28;3.70;;;;;;;16.84;68.59;101248.98;1701571;83;25811;-59
2021/07/23 01:46:25;;;;;;;13.55;4.00;;;;;;;16.70;68.49;101247.75;1701759;84;25780;-59
2021/07/23 01:48:58;;;;;;;14.58;4.03;;;;;;;16.61;68.26;101255.53;1701501;84;27386;-59
2021/07/23 01:51:36;;;;;;;7.58;3.52;;;;;;;16.55;68.48;101259.23;1701202;82;25824;-59
2021/07/23 01:54:04;;;;;;;12.93;3.90;;;;;;;16.48;68.49;101255.99;1701783;82;25791;-59
2021/07/23 01:56:31;;;;;;;10.38;3.47;;;;;;;16.44;68.47;101255.47;1701834;82;25782;-59
2021/07/23 01:59:00;;;;;;;12.43;3.87;;;;;;;16.39;68.58;101255.95;1693161;82;25692;-59
2021/07/23 02:01:29;;;;;;;9.18;3.50;;;;;;;16.40;68.75;101250.01;1682827;85;27503;-59
2021/07/23 02:03:57;;;;;;;8.53;3.35;;;;;;;16.36;69.06;101253.56;1682001;83;25773;-59
2021/07/23 02:06:24;;;;;;;10.15;5.62;;;;;;;16.36;69.17;101256.27;1684524;84;25788;-59
2021/07/23 02:08:53;;;;;;;11.73;5.83;;;;;;;16.38;69.87;101258.81;1684510;83;26781;-59
2021/07/23 02:11:20;;;;;;;12.50;5.67;;;;;;;16.38;70.59;101261.05;1662937;84;25804;-59
2021/07/23 02:13:48;;;;;;;13.38;5.47;;;;;;;16.39;70.05;101255.95;1684378;83;27388;-60
2021/07/23 02:16:15;;;;;;;17.62;5.10;;;;;;;16.41;69.90;101253.07;1684110;85;26405;-59
2021/07/23 02:18:43;;;;;;;11.20;4.62;;;;;;;16.45;69.94;101257.66;1684433;83;25770;-59
2021/07/23 02:21:11;;;;;;;8.50;3.77;;;;;;;16.50;69.89;101261.59;1681413;83;25852;-59
2021/07/23 02:23:38;;;;;;;11.35;4.10;;;;;;;16.55;69.98;101261.95;1653442;85;25756;-59
2021/07/23 02:26:21;;;;;;;13.60;4.80;;;;;;;16.59;69.96;101261.97;1684407;85;27362;-58
2021/07/23 02:28:49;;;;;;;10.88;4.92;;;;;;;16.63;69.82;101264.37;1653311;86;25779;-59
2021/07/23 02:31:17;;;;;;;12.30;5.47;;;;;;;16.65;69.80;101265.04;1684583;84;25906;-59
2021/07/23 02:33:46;;;;;;;11.75;4.00;;;;;;;16.70;69.69;101266.25;1682355;83;25815;-59
2021/07/23 02:36:15;;;;;;;11.05;5.03;;;;;;;16.71;69.66;101261.16;1682069;85;26075;-58
2021/07/23 02:38:43;;;;;;;12.30;4.83;;;;;;;16.72;69.57;101262.00;1652924;85;27410;-59
2021/07/23 02:41:12;;;;;;;14.35;4.67;;;;;;;16.76;69.66;101259.83;1649572;86;25756;-59
2021/07/23 02:43:39;;;;;;;14.28;3.40;;;;;;;16.80;69.76;101257.98;1628861;88;26582;-59
2021/07/23 02:46:06;;;;;;;14.03;4.78;;;;;;;16.88;69.82;101263.44;1628880;88;25808;-59
2021/07/23 02:48:34;;;;;;;14.75;4.47;;;;;;;16.88;69.59;101259.36;1628819;88;25866;-59
2021/07/23 02:51:01;;;;;;;16.02;4.28;;;;;;;16.87;69.35;101258.14;1628928;88;28172;-59
2021/07/23 02:53:28;;;;;;;16.25;4.50;;;;;;;16.92;69.55;101255.80;1628854;88;25809;-59
2021/07/23 02:55:55;;;;;;;11.38;4.42;;;;;;;16.92;69.39;101254.92;1628875;88;26557;-59
2021/07/23 02:58:22;;;;;;;12.58;5.28;;;;;;;16.92;69.54;101253.08;1628424;88;25856;-59
2021/07/23 03:00:49;;;;;;;12.07;4.20;;;;;;;16.92;69.51;101255.80;1669428;84;25824;-59
2021/07/23 03:03:18;;;;;;;14.00;4.37;;;;;;;16.88;69.67;101255.28;1659413;85;29738;-59
2021/07/23 03:05:45;;;;;;;19.57;5.03;;;;;;;16.81;69.78;101252.02;1664320;85;25720;-59
2021/07/23 03:08:14;;;;;;;12.68;4.50;;;;;;;16.73;69.94;101253.70;1673178;85;25716;-59
2021/07/23 03:10:42;;;;;;;12.28;4.40;;;;;;;16.76;69.89;101263.38;1672877;84;25924;-59
2021/07/23 03:13:09;;;;;;;14.60;5.30;;;;;;;16.77;69.88;101261.02;1674097;85;25788;-59
2021/07/23 03:15:37;;;;;;;12.40;4.28;;;;;;;16.72;70.55;101262.00;1674115;85;27435;-59
2021/07/23 03:18:05;;;;;;;9.53;4.80;;;;;;;16.68;70.46;101262.84;1673796;85;26138;-59
2021/07/23 03:20:34;;;;;;;10.65;4.45;;;;;;;16.73;71.02;101260.50;1673220;85;25886;-59
2021/07/23 03:23:05;;;;;;;8.78;4.65;;;;;;;16.75;70.50;101263.04;1643253;86;26548;-59
2021/07/23 03:25:34;;;;;;;14.78;4.28;;;;;;;16.78;70.48;101268.16;1629784;86;26408;-60
2021/07/23 03:28:04;;;;;;;26.97;13.62;;;;;;;16.85;70.68;101268.35;1633636;87;27552;-60
2021/07/23 03:30:33;;;;;;;11.55;4.55;;;;;;;16.89;70.65;101258.34;1633144;87;25835;-59
2021/07/23 03:33:02;;;;;;;9.25;4.45;;;;;;;16.89;70.36;101266.50;1616557;86;25909;-58
2021/07/23 03:35:35;;;;;;;19.67;4.10;;;;;;;16.96;70.45;101263.97;1681903;83;25847;-60
2021/07/23 03:38:04;;;;;;;10.48;4.42;;;;;;;17.04;71.05;101271.30;1648506;85;26497;-61
2021/07/23 03:40:31;;;;;;;10.03;4.72;;;;;;;17.08;70.64;101271.82;1633638;87;27497;-62
2021/07/23 03:43:00;;;;;;;7.10;3.90;;;;;;;17.11;70.32;101264.70;1629884;86;26178;-59
2021/07/23 03:45:29;;;;;;;8.43;4.47;;;;;;;17.11;70.24;101264.70;1629849;85;26536;-61
2021/07/23 03:48:00;;;;;;;12.43;3.95;;;;;;;17.12;70.04;101271.84;1619883;88;25936;-60
2021/07/23 03:50:29;;;;;;;10.38;4.50;;;;;;;17.15;70.23;101274.20;1674951;85;25832;-59
2021/07/23 03:52:58;;;;;;;13.50;4.78;;;;;;;17.14;70.30;101274.73;1674334;85;27547;-59
2021/07/23 03:55:43;;;;;;;11.38;4.55;;;;;;;17.10;69.99;101277.42;1643876;85;25825;-59
2021/07/23 03:58:11;;;;;;;11.08;5.00;;;;;;;17.13;70.18;101278.95;1643896;87;25824;-59
2021/07/23 04:00:39;;;;;;;16.52;4.80;;;;;;;17.18;70.00;101277.95;1628953;88;26502;-60
2021/07/23 04:03:06;;;;;;;11.73;4.17;;;;;;;17.26;69.78;101273.05;1647329;85;26405;-59
2021/07/23 04:05:33;;;;;;;16.17;5.40;;;;;;;17.31;69.79;101273.39;1680502;84;27453;-60
2021/07/23 04:08:02;;;;;;;18.73;5.12;;;;;;;17.29;69.52;101281.72;1702533;84;25859;-59
2021/07/23 04:10:30;;;;;;;12.85;4.58;;;;;;;17.29;69.57;101272.20;1702761;82;25702;-59
2021/07/23 04:12:57;;;;;;;17.35;5.30;;;;;;;17.30;69.77;101277.13;1680975;84;26521;-59
2021/07/23 04:15:26;;;;;;;19.20;5.28;;;;;;;17.33;69.53;101272.72;1702741;84;25816;-59
2021/07/23 04:18:10;;;;;;;8.80;4.65;;;;;;;17.37;69.62;101267.27;1703084;82;27481;-59
2021/07/23 04:20:39;;;;;;;13.25;5.78;;;;;;;17.38;69.50;101272.21;1678962;84;25716;-59
2021/07/23 04:23:07;;;;;;;10.25;5.70;;;;;;;17.38;69.35;101273.05;1676576;84;25716;-59
2021/07/23 04:25:38;;;;;;;10.53;5.30;;;;;;;17.36;69.24;101272.36;1676635;84;25788;-59
2021/07/23 04:28:06;;;;;;;13.95;4.67;;;;;;;17.38;69.47;101266.25;1676928;84;26421;-60
2021/07/23 04:30:35;;;;;;;16.62;6.15;;;;;;;17.38;69.54;101267.61;1676043;84;27466;-60
2021/07/23 04:33:12;;;;;;;12.40;5.30;;;;;;;17.42;69.26;101271.70;1675304;84;26452;-59
2021/07/23 04:35:42;;;;;;;10.40;5.53;;;;;;;17.48;69.32;101269.66;1676440;85;26457;-60
2021/07/23 04:38:09;;;;;;;16.27;5.62;;;;;;;17.55;69.36;101271.20;1685864;83;25978;-59
2021/07/23 04:40:40;;;;;;;13.28;5.45;;;;;;;17.63;69.28;101272.55;1685075;83;25776;-60
2021/07/23 04:43:09;;;;;;;23.65;5.97;;;;;;;17.74;69.19;101269.14;1686572;83;27487;-59
2021/07/23 04:45:37;;;;;;;24.23;5.20;;;;;;;17.89;69.23;101267.91;1686986;84;26397;-60
2021/07/23 04:48:05;;;;;;;16.45;6.12;;;;;;;18.04;68.80;101267.59;1687312;83;25783;-59
2021/07/23 04:50:34;;;;;;;11.03;4.67;;;;;;;18.14;68.10;101264.17;1685868;83;26014;-59
2021/07/23 04:53:17;;;;;;;18.45;5.35;;;;;;;18.24;68.17;101262.60;1628061;88;25963;-60
2021/07/23 04:55:51;;;;;;;13.83;4.75;;;;;;;18.35;67.67;101269.53;1639753;86;27632;-60
2021/07/23 04:58:16;;;;;;;23.55;6.10;;;;;;;18.40;67.59;101258.12;1647745;86;26854;-59
2021/07/23 05:00:45;;;;;;;26.82;6.08;;;;;;;18.45;67.32;101267.47;1671229;85;25815;-60
2021/07/23 05:03:13;;;;;;;16.12;5.45;;;;;;;18.50;67.47;101266.09;1677348;84;26512;-61
2021/07/23 05:05:41;;;;;;;22.32;6.25;;;;;;;18.56;67.44;101263.49;1700245;84;25773;-59
2021/07/23 05:08:10;;;;;;;16.77;6.08;;;;;;;18.56;67.03;101268.11;1701745;83;28207;-59
2021/07/23 05:10:40;;;;;;;16.05;6.20;;;;;;;18.51;66.97;101265.08;1700440;83;25796;-61
2021/07/23 05:13:07;;;;;;;21.02;7.35;;;;;;;18.45;67.14;101258.45;1700758;83;25819;-61
2021/07/23 05:15:37;;;;;;;12.68;5.85;;;;;;;18.39;67.19;101268.18;1709153;82;25796;-61
2021/07/23 05:18:06;;;;;;;15.83;6.03;;;;;;;18.36;67.34;101266.32;1700363;84;25756;-60
2021/07/23 05:20:33;;;;;;;13.50;6.12;;;;;;;18.32;67.59;101274.48;1686853;83;28175;-60
2021/07/23 05:23:02;;;;;;;12.88;6.00;;;;;;;18.28;68.12;101268.05;1684165;83;25794;-60
2021/07/23 05:25:32;;;;;;;12.63;6.53;;;;;;;18.22;68.13;101270.62;1684106;84;25935;-60
2021/07/23 05:28:00;;;;;;;17.10;6.30;;;;;;;18.22;68.18;101266.53;1673595;84;25801;-59
2021/07/23 05:30:28;;;;;;;12.63;6.37;;;;;;;18.22;68.46;101263.28;1672170;85;26464;-59
2021/07/23 05:32:55;;;;;;;18.40;5.58;;;;;;;18.29;68.89;101268.89;1676789;84;27584;-59
2021/07/23 05:35:22;;;;;;;17.75;6.67;;;;;;;18.36;68.60;101264.95;1689476;84;26615;-59
2021/07/23 05:37:49;;;;;;;14.03;6.17;;;;;;;18.45;68.70;101267.47;1692093;83;25761;-59
2021/07/23 05:40:16;;;;;;;10.75;6.33;;;;;;;18.54;68.50;101266.06;1684506;83;26387;-59
2021/07/23 05:42:44;;;;;;;12.88;5.87;;;;;;;18.60;68.21;101266.74;1684370;83;25776;-59
2021/07/23 05:45:11;;;;;;;17.55;6.97;;;;;;;18.69;68.17;101267.01;1684743;83;28158;-60
2021/07/23 05:47:38;;;;;;;14.38;6.42;;;;;;;18.75;67.89;101262.72;1684566;83;25837;-59
2021/07/23 05:50:06;;;;;;;10.05;5.62;;;;;;;18.81;67.90;101262.53;1684750;83;25758;-59
2021/07/23 05:52:33;;;;;;;12.10;6.08;;;;;;;18.83;67.62;101261.84;1684218;83;25836;-61
2021/07/23 05:55:00;;;;;;;14.55;5.62;;;;;;;18.87;67.45;101255.02;1684511;83;25798;-59
2021/07/23 05:57:27;;;;;;;15.23;6.15;;;;;;;18.89;67.51;101251.08;1686352;83;27496;-59
2021/07/23 05:59:54;;;;;;;14.05;6.28;;;;;;;18.97;67.37;101254.28;1724968;83;25815;-59
2021/07/23 06:02:21;;;;;;;19.50;6.80;;;;;;;18.99;67.32;101256.85;1728238;83;25829;-60
2021/07/23 06:04:48;;;;;;;20.25;6.55;;;;;;;19.05;67.09;101262.94;1714699;82;26886;-59
2021/07/23 06:07:15;;;;;;;16.45;6.53;;;;;;;19.10;66.94;101263.23;1702501;83;25743;-59
2021/07/23 06:09:42;;;;;;;8.93;5.95;;;;;;;19.15;66.71;101264.05;1686768;83;28212;-60
2021/07/23 06:12:09;;;;;;;16.32;6.40;;;;;;;19.20;66.76;101261.65;1684254;85;25673;-60
2021/07/23 06:14:36;;;;;;;20.72;6.78;;;;;;;19.18;66.68;101265.93;1684312;85;25789;-60
2021/07/23 06:17:04;;;;;;;18.02;6.42;;;;;;;19.19;66.75;101266.77;1684105;85;25806;-60
2021/07/23 06:19:31;;;;;;;12.95;6.50;;;;;;;19.27;66.73;101261.78;1684499;85;25839;-60
2021/07/23 06:21:58;;;;;;;21.57;7.53;;;;;;;19.28;66.66;101260.72;1653409;85;29660;-59
2021/07/23 06:24:25;;;;;;;16.42;6.65;;;;;;;19.27;66.65;101264.50;1682897;84;25894;-59
2021/07/23 06:26:51;;;;;;;18.90;6.22;;;;;;;19.28;66.99;101255.27;1654085;85;25841;-60
2021/07/23 06:29:18;;;;;;;15.45;6.60;;;;;;;19.34;67.08;101260.02;1652337;86;26217;-60
2021/07/23 06:31:45;;;;;;;16.50;6.55;;;;;;;19.39;67.02;101253.48;1684398;84;25760;-60
2021/07/23 06:34:12;;;;;;;15.48;6.87;;;;;;;19.46;66.91;101248.98;1653150;85;28181;-60
2021/07/23 06:36:39;;;;;;;17.30;6.45;;;;;;;19.57;66.95;101249.08;1654280;85;26357;-60
2021/07/23 06:39:06;;;;;;;17.80;5.83;;;;;;;19.69;66.90;101246.22;1652314;85;25883;-60
2021/07/23 06:41:32;;;;;;;25.85;7.70;;;;;;;19.78;66.65;101241.55;1652866;86;25824;-60
2021/07/23 06:43:59;;;;;;;19.48;6.85;;;;;;;19.89;66.55;101242.16;1652820;85;25757;-60
2021/07/23 06:46:26;;;;;;;13.50;7.22;;;;;;;20.00;66.59;101249.88;1653067;86;27493;-59
2021/07/23 06:48:54;;;;;;;15.72;6.85;;;;;;;20.05;66.42;101247.45;1653127;86;25861;-59
2021/07/23 06:51:21;;;;;;;19.17;6.95;;;;;;;20.09;66.26;101241.92;1652595;85;25886;-60
2021/07/23 06:53:47;;;;;;;14.60;6.37;;;;;;;20.15;66.34;101244.42;1652813;85;27831;-60
2021/07/23 06:56:14;;;;;;;16.87;7.03;;;;;;;20.22;66.10;101239.06;1653204;86;25743;-60
2021/07/23 06:58:41;;;;;;;12.98;6.40;;;;;;;20.31;65.92;101236.56;1645147;86;27500;-60
2021/07/23 07:01:08;;;;;;;11.05;5.97;;;;;;;20.39;65.70;101241.92;1613386;88;25778;-60
2021/07/23 07:03:35;;;;;;;10.60;5.85;;;;;;;20.44;65.29;101239.45;1624052;86;25827;-60
2021/07/23 07:06:03;;;;;;;19.82;5.97;;;;;;;20.50;65.18;101239.21;1641682;86;25816;-60
2021/07/23 07:08:31;;;;;;;20.05;5.92;;;;;;;20.57;65.02;101232.47;1630129;87;25821;-60
2021/07/23 07:11:00;;;;;;;11.30;5.95;;;;;;;20.67;65.01;101233.52;1629809;88;27625;-60
2021/07/23 07:13:27;;;;;;;11.97;5.40;;;;;;;20.75;64.78;101230.20;1629783;88;25994;-60
2021/07/23 07:15:54;;;;;;;9.23;4.47;;;;;;;20.90;64.68;101222.47;1629814;86;26456;-59
2021/07/23 07:18:21;;;;;;;10.55;4.62;;;;;;;20.99;63.88;101224.03;1637952;86;25954;-60
2021/07/23 07:20:47;;;;;;;6.90;3.60;;;;;;;21.08;63.66;101222.03;1640697;86;25800;-60
2021/07/23 07:23:14;;;;;;;15.60;4.58;;;;;;;21.22;64.29;101223.84;1630550;87;27399;-60
2021/07/23 07:25:41;;;;;;;14.23;4.97;;;;;;;21.35;63.67;101219.55;1629941;87;25840;-60
2021/07/23 07:28:08;;;;;;;19.85;5.33;;;;;;;21.45;63.39;101218.70;1629964;87;25798;-60
2021/07/23 07:30:37;;;;;;;10.20;4.85;;;;;;;21.52;62.52;101222.84;1611309;87;26488;-60
2021/07/23 07:33:04;;;;;;;8.05;4.30;;;;;;;21.60;62.43;101216.41;1605003;88;25815;-59
2021/07/23 07:35:31;;;;;;;9.48;4.60;;;;;;;21.67;61.76;101216.80;1612418;87;28302;-60
2021/07/23 07:37:58;;;;;;;11.08;3.70;;;;;;;21.73;61.44;101216.53;1643994;86;25883;-60
2021/07/23 07:40:25;;;;;;;7.85;4.83;;;;;;;21.79;60.86;101217.59;1642912;87;25922;-60
2021/07/23 07:42:52;;;;;;;11.43;3.92;;;;;;;21.87;60.50;101218.30;1642936;86;25816;-60
2021/07/23 07:45:19;;;;;;;11.03;3.98;;;;;;;21.97;60.10;101213.81;1636299;86;26425;-60
2021/07/23 07:47:46;;;;;;;10.68;4.55;;;;;;;22.05;60.02;101216.94;1630090;86;27491;-60
2021/07/23 07:50:13;;;;;;;7.95;4.10;;;;;;;22.15;59.82;101213.81;1628695;88;26348;-60
2021/07/23 07:52:39;;;;;;;11.80;4.58;;;;;;;22.21;59.73;101215.77;1628878;87;26002;-60
2021/07/23 07:55:08;;;;;;;10.00;4.80;;;;;;;22.28;58.73;101213.90;1629150;87;25872;-60
2021/07/23 07:57:35;;;;;;;9.85;4.10;;;;;;;22.39;57.45;101213.83;1629395;86;25786;-60
2021/07/23 08:00:04;;;;;;;9.70;4.17;;;;;;;22.48;58.43;101213.18;1629092;86;27521;-60
2021/07/23 08:02:35;;;;;;;8.48;4.25;;;;;;;22.59;58.58;101206.25;1628644;87;25749;-60
2021/07/23 08:05:01;;;;;;;8.63;4.72;;;;;;;22.76;57.74;101208.11;1632006;86;25916;-60
2021/07/23 08:07:30;;;;;;;8.33;3.62;;;;;;;22.84;58.02;101209.28;1629288;86;26550;-60
2021/07/23 08:09:59;;;;;;;12.05;3.87;;;;;;;22.90;56.62;101205.70;1628989;88;25725;-60
2021/07/23 08:12:26;;;;;;;10.65;4.05;;;;;;;23.01;55.84;101206.98;1629291;86;27362;-60
2021/07/23 08:14:53;;;;;;;12.00;3.83;;;;;;;23.10;53.46;101207.10;1629120;88;25842;-60
2021/07/23 08:17:21;;;;;;;19.80;4.37;;;;;;;23.14;53.64;101210.27;1628726;88;25817;-60
2021/07/23 08:19:49;;;;;;;9.20;4.83;;;;;;;23.22;54.79;101203.78;1674229;85;26354;-60
2021/07/23 08:22:17;;;;;;;9.13;3.58;;;;;;;23.33;54.80;101207.78;1642569;85;25734;-60
2021/07/23 08:24:45;;;;;;;10.60;4.85;;;;;;;23.50;53.44;101193.95;1674087;84;27413;-60
2021/07/23 08:27:14;;;;;;;7.80;4.47;;;;;;;23.59;53.18;101202.29;1673750;85;25814;-60
2021/07/23 08:29:41;;;;;;;16.42;4.00;;;;;;;23.73;53.66;101199.00;1673963;85;25836;-60
2021/07/23 08:32:09;;;;;;;12.30;4.55;;;;;;;23.86;52.13;101205.00;1673515;84;26424;-60
2021/07/23 08:34:37;;;;;;;11.18;3.45;;;;;;;23.96;51.85;101196.36;1674037;85;25793;-59
2021/07/23 08:37:05;;;;;;;11.28;3.72;;;;;;;24.05;50.61;101199.19;1673662;84;28321;-60
2021/07/23 08:39:33;;;;;;;9.43;3.52;;;;;;;24.16;49.98;101199.05;1673706;85;25964;-60
2021/07/23 08:42:28;;;;;;;10.82;3.37;;;;;;;24.24;50.28;101191.10;1673847;85;25779;-60
2021/07/23 08:44:53;;;;;;;8.80;3.40;;;;;;;24.39;49.14;101190.80;1577143;89;25817;-59
2021/07/23 08:47:20;;;;;;;13.40;5.20;;;;;;;24.58;48.68;101188.17;1614038;86;25850;-59
2021/07/23 08:49:48;;;;;;;6.53;3.20;;;;;;;24.69;48.39;101192.51;1628525;86;27448;-59
2021/07/23 08:52:15;;;;;;;9.25;3.60;;;;;;;24.77;47.75;101194.14;1628198;88;25900;-60
2021/07/23 08:54:44;;;;;;;9.83;3.58;;;;;;;24.90;47.33;101185.50;1628324;88;25814;-61
2021/07/23 08:57:12;;;;;;;6.65;3.77;;;;;;;25.07;48.09;101187.16;1628340;88;25789;-61
2021/07/23 08:59:39;;;;;;;7.25;3.77;;;;;;;25.23;48.45;101183.89;1645805;86;25911;-61
2021/07/23 09:02:07;;;;;;;11.55;3.77;;;;;;;25.39;47.35;101189.37;1653659;86;27533;-61
2021/07/23 09:04:39;;;;;;;11.48;3.70;;;;;;;25.53;47.11;101188.73;1655055;86;25828;-61
2021/07/23 09:07:20;;;;;;;8.68;3.37;;;;;;;25.64;44.92;101188.51;1654740;85;25842;-61
2021/07/23 09:10:03;;;;;;;15.23;4.03;;;;;;;25.84;44.36;101191.60;1655399;85;25826;-62
2021/07/23 09:12:27;;;;;;;9.75;3.87;;;;;;;26.00;44.23;101183.27;1654989;85;25808;-61
2021/07/23 09:14:54;;;;;;;7.65;3.75;;;;;;;26.14;44.51;101189.52;1655312;85;28196;-61
2021/07/23 09:17:21;;;;;;;11.28;3.83;;;;;;;26.31;43.83;101183.67;1655324;85;26244;-61
2021/07/23 09:20:03;;;;;;;9.40;3.90;;;;;;;26.52;43.46;101180.13;1663746;85;26604;-61
2021/07/23 09:22:54;;;;;;;19.32;3.85;;;;;;;26.74;43.48;101184.59;1671226;85;25752;-61
2021/07/23 09:25:45;;;;;;;11.70;3.08;;;;;;;27.03;42.81;101180.66;1671224;85;26532;-61
2021/07/23 09:28:34;;;;;;;11.60;3.40;;;;;;;27.40;42.11;101179.10;1686288;85;28077;-61
2021/07/23 09:31:08;;;;;;;6.22;3.40;;;;;;;27.72;41.23;101173.27;1686161;85;25792;-61
2021/07/23 09:33:41;;;;;;;12.30;3.30;;;;;;;28.15;41.03;101176.69;1686665;83;26488;-61
2021/07/23 09:36:10;;;;;;;9.45;3.27;;;;;;;28.60;39.59;101171.52;1683654;83;25790;-61
2021/07/23 09:38:42;;;;;;;9.43;2.98;;;;;;;29.07;40.18;101160.19;1676094;85;25764;-61
2021/07/23 09:41:23;;;;;;;6.25;2.77;;;;;;;29.42;38.28;101161.88;1675740;85;27547;-61
2021/07/23 09:44:00;;;;;;;8.10;2.60;;;;;;;29.52;36.83;101161.22;1668953;84;25810;-59
2021/07/23 09:46:35;;;;;;;5.67;2.62;;;;;;;29.84;37.02;101157.77;1667765;85;26449;-60
2021/07/23 09:49:24;;;;;;;5.83;2.83;;;;;;;30.16;34.50;101160.42;1670304;84;25828;-61
2021/07/23 09:51:55;;;;;;;6.60;2.10;;;;;;;30.36;34.35;101163.45;1671801;85;25755;-60
2021/07/23 09:54:22;;;;;;;5.55;2.40;;;;;;;30.72;34.65;101163.01;1672192;85;27411;-61
2021/07/23 09:56:51;;;;;;;15.58;2.75;;;;;;;31.07;33.55;101159.73;1672037;85;25758;-60
2021/07/23 09:59:33;;;;;;;8.95;2.65;;;;;;;31.42;31.56;101164.48;1672969;85;25895;-61
2021/07/23 10:02:06;;;;;;;4.20;1.90;;;;;;;31.66;31.91;101152.95;1674097;85;25814;-61
2021/07/23 10:04:37;;;;;;;8.63;2.40;;;;;;;31.63;30.85;101157.11;1673756;84;26486;-61
2021/07/23 10:07:14;;;;;;;4.15;1.70;;;;;;;31.57;30.87;101150.39;1673265;85;27478;-61
2021/07/23 10:09:46;;;;;;;6.50;2.25;;;;;;;31.79;28.36;101137.75;1673579;85;25805;-61
2021/07/23 10:12:16;;;;;;;4.47;1.82;;;;;;;31.89;28.65;101143.37;1673698;85;25737;-62
2021/07/23 10:14:46;;;;;;;8.85;2.05;;;;;;;32.08;29.68;101135.36;1658577;85;25770;-61
2021/07/23 10:17:14;;;;;;;7.10;2.75;;;;;;;32.08;29.79;101135.36;1673620;84;25856;-62
2021/07/23 10:19:41;;;;;;;7.70;1.90;;;;;;;31.84;29.74;101134.98;1673855;85;28197;-61
2021/07/23 10:22:11;;;;;;;7.50;2.20;;;;;;;31.41;30.17;101133.62;1673293;84;25825;-61
2021/07/23 10:24:42;;;;;;;6.80;1.80;;;;;;;30.91;30.50;101135.71;1665679;85;25719;-61
2021/07/23 10:27:11;;;;;;;9.75;2.50;;;;;;;30.51;31.71;101136.95;1672025;84;25856;-61
2021/07/23 10:29:47;;;;;;;5.15;2.10;;;;;;;30.17;31.97;101132.41;1648328;85;25836;-61
2021/07/23 10:32:33;;;;;;;9.10;1.95;;;;;;;30.62;32.73;101135.17;1643158;85;27438;-61
2021/07/23 10:35:08;;;;;;;9.13;2.17;;;;;;;31.53;32.35;101132.84;1652965;85;25839;-61
2021/07/23 10:37:51;;;;;;;8.70;2.20;;;;;;;32.53;30.46;101115.47;1674276;84;25809;-61
2021/07/23 10:40:22;;;;;;;;;;;;;;;33.49;28.50;101130.23;1676299;84;25814;-61
2021/07/23 10:42:49;;;;;;;6.22;1.98;;;;;;;34.16;27.90;101128.63;1673823;84;26447;-61
2021/07/23 10:45:20;;;;;;;3.20;1.60;;;;;;;34.73;26.32;101124.11;1673488;84;27539;-61
2021/07/23 10:47:50;;;;;;;6.40;1.70;;;;;;;35.19;25.90;101125.11;1667907;85;25833;-61
2021/07/23 10:50:32;;;;;;;2.92;1.62;;;;;;;35.70;25.33;101125.16;1673977;85;25937;-61
2021/07/23 10:53:23;;;;;;;6.60;1.70;;;;;;;36.23;26.11;101113.57;1673070;85;25811;-61
2021/07/23 10:55:54;;;;;;;5.67;1.60;;;;;;;36.76;24.91;101120.91;1663295;84;26038;-61
2021/07/23 10:58:26;;;;;;;5.78;2.15;;;;;;;37.07;23.76;101113.97;1659665;85;28194;-62
2021/07/23 11:01:02;;;;;;;5.20;1.80;;;;;;;37.34;23.01;101111.77;1668266;84;25830;-62
2021/07/23 11:03:43;;;;;;;8.13;1.80;;;;;;;37.62;22.90;101115.20;1693329;83;25748;-62
2021/07/23 11:06:22;;;;;;;3.37;1.55;;;;;;;36.92;22.96;101110.86;1712833;83;26484;-62
2021/07/23 11:08:55;;;;;;;6.00;2.08;;;;;;;35.67;22.76;101115.13;1713121;83;25792;-61
2021/07/23 11:11:27;;;;;;;6.33;1.80;;;;;;;34.37;23.99;101111.77;1709655;83;27459;-61
2021/07/23 11:13:55;;;;;;;;;;;;;;;34.23;25.31;101106.81;1715038;83;26008;-61
2021/07/23 11:16:27;;;;;;;3.70;1.90;;;;;;;34.98;25.26;101105.48;1709099;83;25847;-61
2021/07/23 11:18:58;;;;;;;5.92;1.92;;;;;;;35.76;24.04;101097.95;1682439;83;25774;-61
2021/07/23 11:21:36;;;;;;;8.33;1.60;;;;;;;36.28;22.38;101098.66;1701808;84;25722;-61
2021/07/23 11:24:12;;;;;;;4.03;1.42;;;;;;;36.27;21.98;101089.98;1682749;83;27541;-61
2021/07/23 11:26:56;;;;;;;10.50;1.87;;;;;;;36.26;22.26;101091.15;1674056;84;25752;-61
2021/07/23 11:29:32;;;;;;;4.80;1.60;;;;;;;36.40;21.98;101089.82;1673845;85;25916;-61